Date,TemperatureHighF,TemperatureAvgF,TemperatureLowF,DewpointHighF,DewpointAvgF,DewpointLowF,HumidityHigh,HumidityAvg,HumidityLow,PressureMaxIn,PressureMinIn,WindSpeedMaxMPH,WindSpeedAvgMPH,GustSpeedMaxMPH,PrecipitationSumIn
2012-1-1,52.2,45.3,36.0,49.7,42.0,34.1,96,88,77,30.10,29.74,13,5,22,0.04
2012-1-11,47.0,44.7,42.1,42.4,35.1,30.0,87,70,53,30.09,29.87,11,6,25,0.00
2012-1-12,50.1,45.4,42.0,49.3,44.0,40.9,100,95,87,29.88,29.38,18,8,33,1.63
2012-1-13,53.2,44.7,31.4,50.5,40.2,15.5,98,85,51,29.62,29.29,23,12,44,0.00
2012-1-17,48.9,46.8,43.9,46.6,45.1,42.3,96,94,91,29.78,29.55,12,8,32,0.14
2012-1-18,51.0,38.9,24.3,47.9,23.0,8.1,92,54,39,30.16,29.54,14,9,30,0.00
2012-1-19,39.7,29.4,17.3,34.8,20.9,9.7,92,71,55,30.26,29.93,12,4,24,0.03
2012-1-20,37.7,31.0,26.3,33.7,19.3,11.3,92,62,43,30.28,29.93,13,5,25,0.00
2012-1-21,31.2,27.1,23.1,29.9,23.1,12.3,96,86,54,30.27,29.93,12,6,27,0.00
2012-1-22,33.3,27.7,19.7,30.3,24.7,17.2,92,88,84,30.51,30.26,9,5,19,0.03
2012-1-23,52.3,45.4,33.2,51.0,43.5,29.4,97,93,87,30.44,29.89,12,7,26,0.30
2012-1-24,49.7,45.6,39.9,48.8,42.4,33.6,98,89,72,30.08,29.89,10,5,18,0.00
2012-1-25,44.2,40.0,35.7,34.6,30.1,27.8,82,68,54,30.28,30.08,9,4,17,0.00
2012-1-26,46.0,38.0,33.4,44.6,34.5,29.2,95,87,77,30.22,29.84,7,3,14,0.11
2012-1-27,53.2,49.7,43.1,52.4,46.7,33.3,98,90,67,29.84,29.28,15,9,38,0.12
2012-1-28,47.5,42.2,34.1,39.9,33.4,28.3,86,72,51,30.03,29.77,12,6,30,0.00
2012-1-29,43.1,39.7,34.6,32.0,21.9,14.0,68,49,34,30.17,29.98,12,8,25,0.00
2012-1-30,44.7,37.3,31.7,33.6,21.5,14.4,69,53,36,30.31,29.98,16,7,31,0.00
2012-1-31,49.0,44.1,35.3,42.2,36.7,23.8,89,75,54,30.27,30.02,10,6,21,0.00
2012-2-1,51.8,47.7,44.6,45.3,42.7,39.9,89,83,71,30.02,29.84,10,5,21,0.04
2012-2-2,48.8,41.6,36.4,40.0,33.2,26.5,85,72,59,30.18,29.96,12,4,20,0.00
2012-2-3,41.3,35.0,28.8,26.4,20.3,13.0,72,56,33,30.41,30.18,10,5,22,0.00
2012-2-4,46.5,39.9,32.4,32.4,26.4,22.7,73,59,42,30.32,30.09,8,4,16,0.00
2012-2-5,38.6,33.2,27.9,24.2,18.6,14.5,75,56,39,30.15,30.08,7,3,15,0.00
2012-2-6,45.6,38.1,25.1,39.7,30.3,19.0,85,74,59,30.14,29.94,14,7,27,0.00
2012-2-7,48.4,42.1,35.2,36.4,30.8,24.4,84,65,48,30.21,29.92,10,5,18,0.00
2012-2-8,38.7,33.6,29.1,29.4,24.8,21.9,93,70,58,30.31,30.05,6,3,14,0.00
2012-2-9,45.0,35.7,28.3,31.0,25.2,18.9,93,68,37,30.12,30.02,9,4,19,0.01
2012-2-10,45.1,38.9,30.4,40.3,31.3,23.3,86,74,59,30.13,29.91,11,5,20,0.01
2012-2-11,38.4,35.6,33.1,34.3,30.8,20.7,95,83,54,29.91,29.51,11,3,22,0.14
2012-2-12,34.0,28.1,20.7,21.5,12.8,4.9,71,53,45,29.96,29.57,14,10,28,0.00
2012-2-13,31.0,28.2,24.1,19.3,16.4,9.6,65,61,53,30.00,29.94,13,9,28,0.00
2012-2-14,45.1,42.4,39.0,40.7,31.2,16.9,89,66,38,30.11,30.03,13,4,25,0.01
2012-2-15,47.3,42.4,38.6,43.0,38.1,34.6,95,85,72,30.25,30.06,5,2,18,0.01
2012-2-16,43.3,38.9,30.4,41.7,34.6,27.4,94,85,64,30.29,30.04,7,2,14,0.07
2012-2-17,51.7,44.6,37.3,44.9,36.2,24.0,97,75,47,30.04,29.87,8,4,17,0.02
2012-2-18,43.4,38.9,32.8,35.9,28.9,23.8,88,68,50,30.06,29.89,11,5,22,0.00
2012-2-19,44.1,36.6,31.2,33.4,28.9,24.6,91,75,54,30.06,29.93,7,3,15,0.00
2012-2-20,43.6,36.1,29.2,24.3,19.6,16.1,63,52,34,30.32,29.94,11,6,27,0.00
2012-2-21,44.9,36.9,25.2,41.6,28.5,17.0,94,72,51,30.34,29.85,13,4,23,0.07
2012-2-22,51.9,45.4,41.5,44.8,41.5,38.0,95,87,61,29.85,29.51,12,6,22,0.00
2012-2-23,60.4,49.1,40.4,47.5,37.9,26.1,94,69,36,29.77,29.37,14,6,31,0.01
2012-2-24,48.2,42.7,36.9,46.8,39.3,31.6,96,88,64,29.77,29.25,13,7,26,0.38
2012-2-25,47.3,41.4,33.7,40.2,24.1,13.5,90,51,34,29.93,29.35,19,13,38,0.00
2012-2-26,42.9,35.2,28.9,21.2,15.8,12.6,68,46,31,30.44,29.94,10,5,27,0.00
2012-2-27,49.6,41.2,26.6,42.1,34.6,18.9,88,77,66,30.44,30.06,14,6,24,0.00
2012-2-28,49.5,43.8,36.4,40.8,26.5,22.8,79,51,36,30.38,30.05,12,5,30,0.00
2012-2-29,43.2,39.4,35.2,41.5,33.1,23.4,97,79,59,30.37,29.74,15,6,29,0.25
2012-3-1,44.0,40.7,33.3,42.7,39.0,29.6,96,93,86,29.95,29.58,17,7,34,0.07
2012-3-2,42.8,36.4,30.5,40.6,32.1,26.8,92,84,80,30.13,29.85,13,5,29,0.06
2012-3-3,50.7,47.3,43.0,49.9,44.6,29.3,98,91,53,29.85,29.42,12,7,25,0.05
2012-3-4,45.7,40.9,35.6,28.6,24.7,20.5,64,53,38,29.70,29.55,8,4,18,0.00
2012-3-5,43.1,36.6,29.7,24.5,16.8,4.7,64,45,31,30.31,29.70,11,6,22,0.00
2012-3-6,40.9,32.8,24.1,32.6,16.0,4.0,72,51,29,30.60,30.32,10,6,22,0.00
2012-3-7,49.9,45.9,40.6,45.4,40.1,32.5,90,80,72,30.59,30.33,13,10,27,0.00
2012-3-8,55.0,51.6,47.4,48.9,47.4,44.9,92,86,79,30.33,29.85,17,13,34,0.00
2012-3-9,53.1,44.4,37.1,49.2,32.2,19.8,93,64,33,30.20,29.81,18,7,35,0.13
2012-3-10,42.1,35.7,30.3,23.4,17.5,10.9,68,48,37,30.53,30.20,11,5,28,0.00
2012-3-11,47.9,43.4,32.8,42.0,33.3,23.1,90,68,52,30.53,30.34,15,8,29,0.00
2012-3-12,52.8,47.2,43.6,46.7,42.8,40.6,92,85,71,30.34,30.14,10,6,18,0.00
2012-3-13,51.5,48.8,47.5,49.8,47.4,45.9,97,95,89,30.14,29.94,9,5,16,0.07
2012-3-14,67.9,55.7,44.9,52.9,44.0,26.3,97,70,21,30.21,29.94,11,5,25,0.01
2012-3-15,45.2,43.6,42.4,42.1,40.5,39.1,94,89,85,30.33,30.20,11,7,23,0.00
2012-3-16,45.8,44.0,42.3,44.7,41.8,38.7,96,92,86,30.31,30.09,8,4,16,0.02
2012-3-17,55.2,47.7,39.5,49.3,44.4,38.6,98,89,74,30.36,30.17,9,4,18,0.00
2012-3-18,48.5,44.4,38.3,46.2,43.1,36.8,97,95,90,30.36,30.20,10,4,17,0.01
2012-3-19,59.7,51.5,43.9,53.5,48.3,43.1,98,89,76,30.23,30.17,8,4,14,0.01
2012-3-20,64.6,54.6,47.8,56.8,51.9,45.3,98,91,74,30.33,30.23,5,2,8,0.00
2012-3-21,63.9,55.5,51.2,59.6,54.1,50.7,99,95,80,30.36,30.28,5,2,11,0.01
2012-3-22,59.9,55.5,52.8,58.2,54.0,52.2,99,95,83,30.29,30.06,10,6,17,0.00
2012-3-23,70.3,58.4,51.7,60.0,51.0,45.6,98,78,53,30.11,30.01,12,4,24,0.01
2012-3-24,56.4,52.3,48.1,46.7,41.8,33.1,84,69,43,30.11,29.97,11,6,22,0.00
2012-3-25,50.0,47.4,43.6,45.4,42.9,38.4,92,84,75,29.98,29.70,11,6,21,0.15
2012-3-26,56.1,46.1,35.9,48.1,29.9,9.4,94,59,26,30.03,29.65,16,8,32,0.00
2012-3-27,48.3,37.3,30.2,21.6,9.0,5.9,55,32,18,30.21,30.03,12,7,25,0.00
2012-3-28,53.0,47.3,35.8,48.2,40.8,20.2,93,79,51,30.15,29.53,15,6,30,0.03
2012-3-29,55.7,50.6,44.2,47.1,39.2,31.6,90,66,49,29.96,29.53,13,7,25,0.00
2012-3-30,52.7,45.0,38.0,36.7,27.8,14.0,70,53,22,30.06,29.95,10,6,21,0.00
2012-3-31,46.1,41.4,38.2,40.2,37.9,33.1,97,88,62,30.02,29.84,11,6,24,0.20
2012-4-1,50.6,44.4,38.4,44.3,39.7,36.7,95,84,66,29.89,29.61,10,5,22,0.15
2012-4-2,55.1,48.4,40.3,44.9,33.0,20.9,95,60,28,29.82,29.55,14,8,30,0.02
2012-4-3,61.1,48.3,35.1,44.7,20.2,9.9,82,37,14,29.89,29.73,12,5,25,0.00
2012-4-4,67.7,55.3,43.0,45.7,33.7,19.8,87,50,21,29.75,29.46,13,4,27,0.00
2012-4-5,55.5,47.0,40.3,39.7,32.3,25.5,78,58,32,29.90,29.67,9,5,21,0.00
2012-4-6,55.6,45.9,35.6,30.7,26.6,22.6,72,49,28,29.98,29.86,9,5,19,0.00
2012-4-7,58.7,48.5,37.9,29.1,22.6,15.6,59,38,21,30.02,29.90,11,6,22,0.00
2012-4-9,63.6,58.3,51.5,42.4,27.3,18.9,66,34,18,29.67,29.57,16,8,38,0.00
2012-4-10,57.2,51.2,45.6,44.8,35.5,24.5,76,56,36,29.76,29.64,13,5,26,0.00
2012-4-11,55.8,48.5,39.8,40.7,34.3,31.0,84,59,40,29.85,29.72,9,5,23,0.01
2012-4-12,58.5,49.4,43.8,41.5,39.1,35.6,88,69,44,30.08,29.83,9,5,19,0.00
2012-4-13,60.8,49.6,40.2,44.0,38.6,24.9,93,69,28,30.17,30.08,11,6,22,0.00
2012-4-14,62.6,53.2,43.2,49.3,41.9,31.1,86,67,33,30.19,30.01,10,5,18,0.00
2012-4-15,61.4,56.8,51.5,55.1,51.7,48.3,93,83,74,30.03,29.94,11,6,20,0.02
2012-4-16,64.9,58.3,53.5,57.5,54.0,50.7,94,86,76,30.03,29.92,9,5,17,0.00
2012-4-17,79.7,67.3,54.8,59.9,47.2,34.6,94,56,21,30.12,29.89,11,5,22,0.00
2012-4-18,63.8,55.0,50.8,44.9,38.0,34.3,77,54,36,30.22,30.11,12,5,22,0.00
2012-4-19,58.3,53.2,49.8,50.4,46.8,43.8,88,79,67,30.12,30.01,10,5,17,0.01
2012-4-20,63.3,55.8,50.5,53.9,51.0,48.2,96,84,68,30.05,29.86,7,4,14,0.01
2012-4-21,62.2,56.0,52.1,57.4,54.0,51.3,98,93,80,29.86,29.69,11,4,20,0.00
2012-4-22,58.2,53.5,50.7,57.6,51.8,49.6,98,94,84,29.75,29.31,14,7,27,1.89
2012-4-23,58.1,53.3,49.7,57.5,50.1,41.9,98,89,74,29.42,29.18,14,10,29,0.02
2012-4-24,55.9,50.0,45.0,47.4,40.4,35.5,84,70,52,29.69,29.39,16,11,28,0.00
2012-4-25,56.9,51.0,40.9,48.5,40.6,33.7,88,68,47,29.89,29.69,10,4,19,0.00
2012-4-26,58.2,50.4,39.5,53.3,46.7,36.8,97,87,71,29.92,29.55,10,4,19,0.02
2012-4-27,56.0,50.6,41.8,54.8,36.2,26.0,98,60,39,30.09,29.54,15,9,30,0.01
2012-4-28,56.4,46.8,35.8,44.9,33.3,23.1,78,61,28,30.20,30.09,10,6,21,0.00
2012-4-29,63.3,52.5,40.6,44.0,27.4,17.2,75,41,17,30.21,30.02,10,5,21,0.00
2012-4-30,57.0,49.7,39.6,43.8,30.1,21.6,77,48,28,30.33,30.21,8,5,19,0.00
2012-5-1,63.3,54.1,50.7,59.5,50.3,43.5,97,87,73,30.23,29.94,9,6,19,0.84
2012-5-2,53.8,49.8,47.9,49.1,46.4,45.1,91,88,81,30.17,30.07,9,4,19,0.00
2012-5-4,56.9,54.7,52.8,55.5,53.7,52.3,98,96,93,29.99,29.87,6,4,16,0.08
2012-5-5,54.6,53.6,52.7,54.2,53.1,52.2,99,98,98,29.99,29.88,5,3,11,0.00
2012-5-7,61.3,56.5,53.7,51.4,49.4,47.7,85,77,66,30.15,30.11,8,6,15,0.00
2012-5-8,59.8,56.5,53.8,55.8,52.2,48.0,93,86,74,30.11,29.86,10,7,20,0.01
2012-5-9,58.9,56.9,55.1,58.3,56.2,54.5,99,98,94,29.87,29.56,11,6,22,1.23
2012-5-10,67.4,58.6,51.2,56.7,48.5,38.4,99,72,40,29.80,29.45,13,6,26,0.23
2012-5-11,68.0,57.3,48.9,50.4,41.3,32.9,73,57,28,30.08,29.80,11,6,24,0.00
2012-5-12,69.6,59.3,46.9,54.1,45.6,35.6,83,61,40,30.19,30.07,10,4,19,0.00
2012-5-13,68.3,61.9,57.7,58.5,55.8,53.6,88,81,70,30.18,30.11,8,5,15,0.00
2012-5-14,65.8,61.1,58.4,59.9,57.3,55.1,92,87,82,30.17,30.09,8,5,15,0.00
2012-5-21,62.4,60.4,59.5,60.3,59.1,58.6,98,95,93,30.12,29.99,10,6,24,0.08
2012-5-22,65.6,61.7,59.7,63.5,60.6,58.6,98,96,90,29.98,29.78,9,5,21,0.18
2012-5-23,72.3,64.1,60.3,65.7,61.5,59.6,99,92,76,30.05,29.83,6,2,12,0.00
2012-5-24,64.3,60.5,59.0,62.0,59.3,57.8,98,96,90,30.21,30.04,9,5,17,0.02
2012-5-25,69.7,63.4,59.2,66.0,62.3,58.6,100,96,88,30.21,30.12,7,4,16,0.01
2012-5-26,73.9,66.8,62.4,67.9,64.6,61.9,99,93,80,30.14,30.07,10,5,19,0.00
2012-5-27,77.3,68.5,65.2,66.6,64.3,61.1,97,87,68,30.15,30.02,7,3,13,0.00
2012-5-28,77.6,69.1,65.4,70.2,66.4,64.4,98,92,76,30.01,29.90,7,4,16,0.00
2012-5-29,75.0,70.5,65.5,69.9,67.9,64.6,98,92,84,29.91,29.72,12,6,23,0.02
2012-5-30,72.6,68.5,63.9,69.2,66.2,62.9,98,93,80,29.76,29.70,4,2,9,0.01
2012-5-31,81.2,71.2,62.2,66.3,56.7,49.1,99,66,34,29.90,29.68,8,4,18,0.00
2012-6-1,68.3,63.2,58.9,59.7,56.4,52.7,94,79,68,30.03,29.87,14,8,27,0.00
2012-6-2,72.7,66.0,61.5,66.1,60.9,52.9,98,85,56,29.87,29.65,14,6,30,0.78
2012-6-3,75.7,65.8,57.6,59.9,56.3,49.9,91,73,43,29.72,29.61,11,5,26,0.00
2012-6-4,64.0,57.9,53.0,57.7,50.7,47.0,92,77,61,29.76,29.59,10,6,26,0.00
2012-6-5,63.8,57.2,52.1,53.2,49.7,46.6,88,76,61,29.94,29.75,8,4,16,0.00
2012-6-6,67.0,60.2,51.3,59.0,55.5,49.3,94,85,72,29.98,29.92,8,4,16,0.00
2012-6-7,71.1,65.1,59.5,61.8,59.2,57.2,95,82,65,29.96,29.90,8,3,16,0.03
2012-6-8,73.5,66.5,58.0,63.1,60.0,55.1,92,80,57,29.92,29.81,9,4,18,0.00
2012-6-9,76.7,69.1,64.6,64.6,61.5,59.1,94,77,61,29.95,29.81,5,2,13,0.00
2012-6-10,78.9,69.2,61.4,67.6,63.2,59.4,94,82,64,30.19,29.95,6,3,14,0.00
2012-6-11,70.7,65.3,62.9,62.0,59.9,58.6,91,83,71,30.27,30.18,8,5,16,0.00
2012-6-12,71.1,65.9,63.3,65.0,63.1,60.6,96,91,81,30.20,29.93,7,5,17,0.10
2012-6-13,65.0,64.3,62.9,64.1,63.3,62.0,98,97,96,30.04,29.86,9,5,17,1.70
2012-6-14,70.1,64.6,57.8,64.0,61.0,53.6,97,88,77,30.23,30.04,9,4,18,0.01
2012-6-15,71.8,59.8,53.7,58.9,55.0,51.3,96,85,51,30.27,30.21,7,3,16,0.00
2012-6-25,63.9,62.9,62.4,60.8,60.1,58.3,93,91,86,29.68,29.65,5,4,12,1.75
2012-6-26,73.8,65.0,56.4,57.9,54.4,51.3,89,70,53,29.72,29.62,13,6,26,0.00
2012-6-27,82.9,71.3,63.2,56.4,52.1,47.1,72,53,31,29.78,29.66,10,5,20,0.00
2012-6-28,78.1,71.7,64.0,67.1,61.2,51.6,91,70,57,29.80,29.72,8,4,16,0.00
2012-6-29,90.2,75.9,69.5,73.5,70.0,66.3,92,82,54,29.72,29.60,8,4,17,0.02
2012-6-30,92.2,78.1,70.4,73.2,69.1,55.4,93,76,30,29.75,29.63,8,4,16,0.00
2012-7-1,86.0,76.9,70.1,72.9,68.9,63.4,93,77,52,29.82,29.74,8,3,18,0.00
2012-7-2,87.3,77.5,68.7,68.8,63.7,59.2,90,65,39,29.89,29.81,7,3,16,0.00
2012-7-3,85.3,75.0,66.3,70.3,65.0,59.8,90,72,44,29.92,29.83,7,4,15,0.00
2012-7-4,82.5,75.5,72.9,72.9,71.3,69.2,95,87,69,29.84,29.70,8,4,17,0.24
2012-7-5,91.0,81.4,73.7,73.8,69.1,59.5,94,70,35,29.84,29.65,7,4,17,0.01
2012-7-6,82.9,76.4,68.7,73.8,71.1,67.2,96,84,64,29.91,29.84,8,3,16,0.00
2012-7-7,90.2,81.2,73.4,76.3,72.5,68.0,95,76,54,29.87,29.75,9,4,33,0.25
2012-7-8,86.5,78.5,71.6,72.6,70.2,64.5,92,77,50,29.84,29.78,8,3,15,0.00
2012-7-9,81.1,75.0,69.9,69.3,61.7,53.9,83,64,42,29.96,29.83,7,3,13,0.00
2012-7-10,80.8,74.2,67.4,71.2,66.7,63.3,90,78,62,30.08,29.95,7,3,14,0.00
2012-7-11,80.8,73.8,67.2,70.5,68.2,65.1,95,83,66,30.18,30.07,7,2,12,0.00
2012-7-12,79.1,73.4,65.5,69.8,66.3,63.7,95,79,64,30.19,30.14,8,3,16,0.00
2012-7-13,81.5,75.9,72.7,73.4,68.8,64.4,89,79,69,30.20,30.14,7,3,14,0.00
2012-7-14,85.8,78.8,75.0,72.2,69.5,65.2,88,74,52,30.17,30.11,10,4,19,0.00
2012-7-15,82.9,77.0,72.8,76.3,73.4,69.4,95,89,79,30.14,29.90,9,4,20,0.26
2012-7-16,85.7,78.1,70.8,75.5,72.8,69.4,96,85,64,29.91,29.76,9,4,18,0.01
2012-7-17,86.4,79.9,72.8,75.1,71.9,67.7,95,77,57,29.82,29.73,8,4,17,0.00
2012-7-18,86.4,79.1,72.2,77.9,74.4,69.3,96,86,71,29.86,29.74,9,4,20,0.30
2012-7-19,75.0,72.5,70.5,72.4,66.4,60.9,95,81,63,29.98,29.83,9,3,18,0.00
2012-7-20,70.9,66.0,61.7,66.7,62.6,59.4,93,89,80,30.04,29.94,9,4,21,0.52
2012-7-21,74.9,68.0,59.5,63.9,60.7,57.1,93,79,60,30.11,30.01,9,3,16,0.00
2012-7-22,76.1,69.5,59.5,66.0,62.3,57.5,94,79,61,30.16,30.10,9,3,16,0.00
2012-7-23,80.3,75.4,71.0,74.7,71.3,65.6,95,87,82,30.12,29.77,10,5,19,0.00
2012-7-24,91.3,80.2,74.1,75.6,70.7,64.5,95,75,48,29.79,29.55,10,5,23,0.01
2012-7-25,83.8,75.3,65.9,68.5,58.8,54.6,85,58,37,29.85,29.68,8,5,20,0.00
2012-7-26,82.1,75.9,72.3,75.4,71.4,65.9,94,86,75,29.80,29.63,10,5,20,0.09
2012-7-27,83.7,77.5,71.5,75.5,73.0,69.7,95,86,73,29.87,29.63,9,4,19,0.00
2012-7-28,75.8,70.6,67.2,72.9,69.0,65.4,97,95,86,29.95,29.86,9,4,17,0.89
2012-7-29,76.3,71.1,67.6,69.6,67.9,65.6,97,90,78,30.05,29.88,6,2,11,0.01
2012-7-30,77.0,70.8,64.9,67.5,65.2,62.6,95,83,70,30.12,30.04,7,3,13,0.00
2012-7-31,74.2,71.5,67.8,69.1,66.9,64.3,93,86,81,30.09,29.89,8,4,16,0.00
2012-8-1,80.1,73.8,67.3,73.7,70.7,65.2,96,90,80,29.93,29.83,9,3,14,0.00
2012-8-2,81.5,77.0,72.9,75.1,73.1,71.7,97,88,78,29.87,29.81,8,3,17,0.00
2012-8-3,83.8,79.5,76.1,77.9,75.9,74.6,95,89,82,30.10,30.02,7,4,16,0.00
2012-8-4,84.0,75.4,74.9,78.5,69.2,-99.9,98,89,83,30.21,30.10,9,-36,16,0.01
2012-8-5,83.0,68.7,76.6,78.9,53.1,-99.9,97,80,85,30.21,29.97,21,-127,25,0.00
2012-8-6,87.5,74.1,70.2,75.4,59.6,-99.9,97,71,46,30.00,29.93,14,-50,17,0.56
2012-8-7,80.7,73.0,64.7,70.8,65.7,60.2,93,79,52,30.01,29.96,6,3,11,0.00
2012-8-8,81.4,75.7,68.0,75.2,72.2,66.8,96,89,77,29.99,29.93,5,2,9,0.00
2012-8-9,83.1,77.4,72.5,76.4,74.3,71.6,98,90,79,29.96,29.88,8,3,16,0.01
2012-8-10,81.6,77.2,73.3,77.3,75.0,71.8,96,93,86,29.92,29.76,13,6,28,0.55
2012-8-11,81.7,77.0,74.4,77.3,74.7,70.2,97,93,80,29.92,29.79,8,5,17,0.05
2012-8-12,81.0,76.7,72.1,75.2,73.4,70.8,96,90,82,29.92,29.88,9,5,19,0.06
2012-8-13,82.6,75.4,67.0,71.9,68.2,62.7,93,79,55,29.97,29.92,8,3,16,0.00
2012-8-14,81.6,75.5,67.4,73.5,69.2,63.0,93,81,57,29.96,29.89,9,3,15,0.00
2012-8-15,79.5,71.6,65.5,72.5,69.1,62.9,97,92,76,29.93,29.82,11,3,27,2.00
2012-8-16,84.8,75.2,67.3,71.5,67.9,62.8,98,80,50,29.86,29.82,7,3,13,0.01
2012-8-17,82.5,75.2,64.6,74.6,69.6,61.1,92,83,72,29.87,29.78,10,4,19,0.00
2012-8-18,75.0,68.0,63.3,69.3,64.6,61.5,97,89,76,29.91,29.80,7,3,16,1.38
2012-8-19,77.0,68.6,59.5,63.1,59.8,55.6,95,75,49,29.96,29.89,4,2,9,0.00
2012-8-20,77.3,70.3,63.4,64.3,61.7,56.4,89,75,52,29.92,29.84,5,1,9,0.00
2012-8-21,81.8,72.0,66.5,68.0,65.0,55.2,92,80,45,30.09,29.90,6,2,11,0.00
2012-8-22,81.4,72.2,63.8,71.0,66.3,61.0,93,82,60,30.14,30.07,6,2,10,0.00
2012-8-23,79.4,72.2,63.5,72.5,67.4,62.0,96,85,63,30.16,30.10,9,2,15,0.01
2012-8-24,81.1,74.2,67.4,72.1,69.5,65.5,94,86,67,30.17,30.10,5,2,9,0.00
2012-8-25,81.4,62.3,68.6,72.1,42.0,-99.9,97,70,63,30.28,30.17,10,-152,18,0.00
2012-8-26,78.2,71.9,66.6,69.0,66.2,63.7,95,83,71,30.32,30.22,8,4,17,0.00
2012-8-27,82.4,73.1,64.3,75.2,70.0,62.5,96,90,79,30.22,29.95,9,4,21,0.44
2012-8-28,86.5,78.1,72.0,75.4,70.5,63.3,97,79,55,29.95,29.76,10,5,23,0.10
2012-8-29,76.4,70.1,61.2,63.1,56.2,50.4,87,63,43,30.00,29.85,7,4,16,0.00
2012-8-30,78.7,70.2,58.9,70.3,59.6,52.9,89,70,49,30.08,30.00,7,4,18,0.00
2012-8-31,82.1,75.8,69.2,74.9,70.1,63.2,92,83,75,30.04,29.87,9,5,19,0.00
2012-9-1,84.5,76.4,70.2,70.8,68.1,64.6,90,76,59,30.06,29.88,10,5,18,0.00
2012-9-2,78.7,72.5,66.0,69.9,66.6,62.9,94,82,65,30.09,30.01,6,2,13,0.00
2012-9-3,75.6,71.7,67.2,68.9,66.1,63.0,94,83,71,30.18,30.08,9,5,18,0.00
2012-9-4,78.2,74.6,72.8,74.6,72.1,67.0,97,92,82,30.11,29.87,9,5,17,0.20
2012-9-5,81.0,75.7,72.9,76.7,74.1,72.0,97,95,84,29.87,29.75,10,5,22,0.33
2012-9-6,77.3,72.6,69.7,72.7,70.4,68.2,98,93,83,29.90,29.79,5,2,11,0.01
2012-9-7,80.7,74.3,70.0,74.7,71.9,69.1,98,92,82,29.92,29.85,8,3,14,0.01
2012-9-8,80.4,75.0,66.6,75.8,72.3,63.0,96,92,85,29.88,29.62,13,8,25,0.02
2012-9-9,76.3,68.2,62.8,64.2,59.5,52.4,94,76,46,29.86,29.73,6,2,13,0.05
2012-9-10,72.8,65.9,59.8,59.3,51.8,43.9,87,62,43,30.09,29.83,11,6,22,0.00
2012-9-11,71.1,61.6,49.8,54.0,48.4,44.9,85,64,44,30.27,30.09,7,2,14,0.00
2012-9-12,74.0,65.7,54.8,64.4,58.6,52.2,93,79,50,30.36,30.27,8,3,14,0.00
2012-9-13,74.7,68.5,59.5,64.8,61.9,57.2,93,80,70,30.37,30.28,8,3,16,0.00
2012-9-14,75.1,69.4,61.0,67.4,63.9,59.1,94,83,71,30.28,30.08,7,3,15,0.00
2012-9-15,73.0,67.8,57.6,66.8,56.8,50.0,91,70,48,30.08,30.01,10,5,22,0.00
2012-9-16,72.7,62.9,52.8,57.5,52.8,48.2,88,71,44,30.11,30.01,8,3,18,0.00
2012-9-17,73.1,65.2,52.9,59.5,55.1,50.1,91,71,50,30.10,30.03,8,3,17,0.00
2012-9-18,75.0,72.4,67.9,70.9,67.7,58.7,94,85,72,30.05,29.71,23,10,41,0.43
2012-9-19,70.8,65.2,56.4,69.1,55.7,47.8,96,73,46,30.16,29.72,14,5,36,0.01
2012-9-20,68.3,61.5,53.7,57.8,53.1,48.2,87,74,63,30.18,30.11,10,6,22,0.00
2012-9-21,71.5,62.7,56.9,59.4,56.2,52.8,93,80,55,30.11,30.00,8,3,18,0.00
2012-9-22,72.5,63.9,51.9,68.6,60.0,50.7,96,88,72,30.00,29.82,11,4,22,0.01
2012-9-23,70.7,63.7,53.6,68.6,53.5,44.5,95,72,43,30.08,29.82,9,4,18,0.00
2012-9-24,67.9,58.4,50.8,51.8,46.6,38.2,87,67,35,30.13,30.07,7,2,16,0.00
2012-9-25,71.1,62.0,49.2,58.7,47.6,-99.9,81,64,53,30.19,30.13,10,-21,23,0.00
2012-9-26,73.9,69.4,66.2,66.2,63.5,57.8,93,82,73,30.14,30.02,10,6,22,0.00
2012-9-27,76.2,68.2,63.2,66.1,63.7,61.1,93,86,64,30.17,30.02,5,3,13,0.00
2012-9-28,70.5,66.6,61.1,67.2,62.7,57.3,96,87,78,30.18,29.90,12,7,32,0.02
2012-9-29,62.2,59.2,53.8,60.2,57.6,52.4,97,94,89,29.91,29.85,6,2,12,0.11
2012-9-30,66.5,59.0,53.9,59.0,55.1,50.2,97,88,67,29.86,29.75,8,2,17,0.01
2012-10-1,68.8,61.1,53.7,56.7,51.9,48.1,83,72,62,29.87,29.78,10,6,24,0.00
2012-10-3,69.8,67.4,66.7,67.7,66.2,65.6,98,96,93,30.10,30.03,3,2,7,0.01
2012-10-4,68.1,66.7,65.7,66.9,65.9,65.0,98,97,95,30.12,30.02,5,1,9,0.03
2012-10-5,73.9,67.9,63.5,67.3,64.9,62.8,98,91,78,30.05,29.93,5,2,12,0.01
2012-10-6,74.1,67.2,54.7,68.0,62.8,46.9,95,86,70,29.96,29.75,13,5,25,0.01
2012-10-7,59.5,51.9,45.9,50.0,45.9,40.7,93,81,52,30.08,29.96,6,2,12,0.13
2012-10-8,56.7,50.8,43.2,47.9,45.4,41.9,95,83,62,30.28,30.08,6,2,12,0.01
2012-10-9,59.1,56.3,51.7,55.7,52.5,46.3,93,87,77,30.22,30.07,9,5,21,0.00
2012-10-10,70.3,61.1,55.1,66.1,56.9,48.9,97,87,69,30.07,29.76,10,5,20,0.10
2012-10-11,60.9,54.1,47.6,49.4,40.5,36.1,78,61,43,30.16,29.88,9,5,19,0.00
2012-10-12,60.0,51.7,44.8,44.4,36.6,25.3,77,57,39,30.38,30.06,10,6,22,0.00
2012-10-13,54.6,46.2,33.4,44.2,31.5,25.6,82,57,42,30.51,30.30,8,3,18,0.00
2012-10-14,67.1,62.6,54.6,60.7,55.0,44.6,90,77,69,30.30,29.97,11,9,25,0.00
2012-10-15,68.1,65.5,61.9,63.4,62.2,60.2,95,89,84,29.97,29.62,13,9,29,0.02
2012-10-16,61.7,55.6,43.2,59.9,46.4,39.3,94,73,49,29.89,29.57,12,5,22,0.01
2012-10-17,59.1,49.1,39.0,47.8,42.0,36.5,92,78,51,30.00,29.89,4,1,10,0.00
2012-10-18,65.5,56.3,44.0,58.5,50.8,42.3,96,83,64,30.06,29.97,7,3,13,0.01
2012-10-19,66.5,64.6,62.2,64.8,63.1,58.4,97,95,88,29.97,29.68,10,6,22,0.28
2012-10-20,67.5,62.9,54.9,65.5,59.2,44.3,98,88,65,29.81,29.65,10,5,19,0.00
2012-10-21,64.3,56.0,46.2,47.8,44.3,42.5,88,66,48,29.97,29.81,8,4,18,0.00
2012-10-22,65.5,58.1,48.5,50.3,45.4,42.7,83,64,46,30.04,29.96,8,5,19,0.00
2012-10-23,70.5,57.7,49.0,55.2,50.2,44.3,94,77,44,30.10,30.02,5,1,9,0.04
2012-10-24,59.8,56.5,54.4,55.8,53.1,50.2,96,89,81,30.19,30.08,5,2,11,0.01
2012-10-25,61.9,58.3,54.2,54.7,51.2,49.5,86,78,65,30.26,30.18,5,2,13,0.00
2012-10-26,67.8,61.9,56.4,59.7,56.7,53.5,90,83,73,30.22,30.10,5,2,10,0.00
2012-10-27,64.7,60.4,58.0,56.5,53.5,45.1,89,78,63,30.10,29.89,8,3,17,0.00
2012-10-28,60.7,57.9,56.2,54.3,51.4,45.4,86,79,63,29.89,29.72,14,8,33,0.00
2012-11-6,44.5,39.9,35.6,32.5,25.6,22.8,70,57,44,30.22,30.05,9,4,26,0.00
2012-11-7,42.4,38.8,34.3,37.6,34.2,31.0,93,84,67,30.04,29.63,17,12,38,0.68
2012-11-8,43.5,39.2,34.1,38.2,34.7,31.9,93,84,70,29.83,29.63,13,9,34,0.27
2012-11-9,52.7,44.1,38.3,34.6,30.3,23.4,77,60,34,30.16,29.82,14,6,25,0.00
2012-11-10,50.9,45.1,41.4,43.7,39.0,33.8,85,79,72,30.42,30.16,4,2,9,0.00
2012-11-11,61.0,54.5,43.2,54.6,50.1,39.9,95,85,74,30.50,30.42,9,4,16,0.00
2012-11-12,63.5,58.3,50.0,59.6,56.6,48.9,98,94,87,30.48,30.20,11,5,21,0.01
2012-11-13,60.9,51.3,43.5,59.8,47.2,32.9,96,86,65,30.41,30.12,12,7,22,0.13
2012-11-14,48.8,42.3,37.6,35.8,31.5,27.8,75,66,46,30.48,30.40,9,4,19,0.00
2012-11-15,42.8,39.7,36.6,35.2,32.9,29.5,82,77,70,30.43,30.28,7,3,17,0.00
2012-11-16,46.9,40.4,33.8,35.9,32.2,28.6,89,73,58,30.40,30.26,6,2,13,0.00
2012-11-17,51.5,42.2,35.3,37.5,33.4,29.8,88,72,53,30.62,30.40,8,3,18,0.00
2012-11-18,51.5,43.7,36.9,40.6,37.3,34.3,93,79,64,30.65,30.55,9,4,17,0.00
2012-11-19,48.9,44.6,39.9,43.3,39.7,36.3,90,83,77,30.55,30.22,8,4,18,0.00
2012-11-20,51.4,43.2,37.4,42.8,38.9,35.6,94,85,69,30.22,30.09,6,3,12,0.00
2012-11-21,53.4,45.4,40.0,40.9,38.7,36.8,91,79,54,30.21,30.11,8,3,17,0.00
2012-11-22,56.1,45.5,37.5,45.8,41.6,35.9,96,87,66,30.25,30.12,6,2,13,0.01
2012-11-23,54.6,47.8,37.0,49.9,44.7,35.1,97,89,78,30.12,29.67,8,4,15,0.00
2012-11-24,50.6,43.5,36.3,47.8,28.3,18.2,90,57,39,29.78,29.60,15,9,32,0.00
2012-11-25,41.8,37.6,34.3,26.2,22.6,19.0,65,55,45,29.94,29.78,13,8,26,0.00
2012-11-26,48.5,39.9,31.8,27.0,25.0,23.5,73,56,39,30.25,29.94,11,4,23,0.00
2012-11-27,42.7,38.4,32.9,36.9,33.0,24.9,95,82,59,30.29,30.15,8,4,16,0.49
2012-11-28,42.8,37.8,33.4,35.8,30.5,24.4,94,76,55,30.24,30.12,9,5,18,0.01
2012-11-29,44.7,38.1,31.0,31.8,27.4,24.4,79,66,45,30.33,30.23,11,6,25,0.00
2012-11-30,46.9,40.3,34.1,36.6,31.6,26.8,83,71,54,30.44,30.29,9,5,18,0.00
2012-12-1,49.2,43.5,39.7,47.2,39.9,34.0,93,87,80,30.51,30.39,9,5,20,0.00
2012-12-2,53.5,47.9,43.6,50.6,46.4,42.5,100,94,90,30.39,30.11,10,4,19,0.01
2012-12-3,60.2,51.2,39.0,51.9,47.0,37.1,96,86,69,30.27,30.08,8,3,16,0.00
2012-12-4,57.3,50.4,38.2,55.5,49.2,36.2,98,95,91,30.28,30.00,10,4,19,0.06
2012-12-5,57.5,50.1,36.8,53.9,41.2,23.8,97,73,51,30.17,29.89,12,7,24,0.01
2012-12-6,38.7,32.8,26.5,24.7,22.3,19.4,84,66,53,30.33,30.16,10,4,24,0.00
2012-12-7,48.5,41.6,27.0,46.2,37.2,22.3,95,84,69,30.28,30.02,5,2,16,0.06
2012-12-8,53.2,49.0,46.7,52.6,48.2,45.6,98,97,95,30.02,29.85,8,3,13,0.44
2012-12-9,50.2,47.0,44.4,49.4,44.8,40.4,98,92,77,30.23,29.98,11,5,22,0.15
2012-12-10,58.0,54.8,50.3,57.4,54.2,49.4,98,98,97,30.00,29.54,11,6,26,1.01
2012-12-11,53.4,45.9,37.8,52.8,40.6,31.3,98,82,66,30.17,29.55,9,4,20,0.04
2012-12-12,42.5,36.8,31.9,32.0,29.6,26.7,88,76,55,30.42,30.17,6,2,13,0.00
2012-12-13,46.6,38.8,33.3,32.7,29.0,25.9,84,69,50,30.45,30.35,5,2,13,0.00
2012-12-14,44.6,40.5,37.7,33.9,30.8,28.3,74,68,61,30.21,30.12,6,2,13,0.00
2012-12-15,48.1,40.5,33.6,36.9,31.9,29.1,85,72,52,30.30,30.20,7,2,13,0.00
2012-12-16,46.6,45.2,44.2,45.5,41.6,36.1,96,88,72,30.23,29.89,15,11,29,0.29
2012-12-17,51.2,47.3,45.1,50.6,46.4,44.0,98,97,95,29.88,29.65,12,7,25,0.29
2012-12-18,54.9,50.4,45.5,54.3,48.2,38.7,98,92,77,29.65,29.43,11,7,23,0.28
2012-12-19,49.6,44.3,38.7,38.9,31.9,28.7,80,62,49,30.07,29.53,15,8,30,0.00
2012-12-20,47.1,41.2,32.9,42.2,33.5,28.0,84,74,59,30.20,29.91,15,5,28,0.00
2012-12-21,57.9,47.8,39.6,55.9,42.4,30.0,95,82,66,29.90,29.13,26,15,46,0.49
2012-12-22,40.5,37.7,35.9,32.7,25.7,20.3,85,63,47,29.77,29.31,18,12,41,0.00
2012-12-23,43.9,38.2,34.3,31.2,25.7,21.3,70,61,51,29.93,29.77,12,6,22,0.00
2012-12-24,41.6,34.9,28.7,34.5,25.8,21.6,94,70,52,30.08,29.91,5,2,11,0.06
2012-12-25,41.2,37.3,31.6,40.1,34.1,25.2,100,88,76,30.22,29.88,9,5,18,0.16
2012-12-26,45.4,35.6,27.7,43.5,31.0,21.7,93,83,74,30.26,29.50,25,9,54,0.55
2012-12-27,48.9,41.1,32.9,47.8,37.9,25.4,96,88,74,29.73,29.18,26,11,46,0.37
2012-12-28,39.9,33.6,28.8,27.2,25.3,21.7,86,72,60,30.05,29.73,12,6,26,0.00
2012-12-29,38.9,33.4,27.3,37.3,30.9,24.4,96,91,85,30.03,29.39,10,4,25,0.47
2012-12-30,35.5,31.9,29.6,32.1,23.2,15.3,95,71,54,30.09,29.47,14,9,31,0.01
2012-12-31,40.7,33.7,27.7,29.3,23.8,15.1,76,67,54,30.15,29.83,13,9,26,0.00
2013-1-1,40.7,37.3,28.6,32.3,27.0,16.8,81,66,53,29.96,29.79,12,6,22,0.00